Time;durP1;ratioP1;P1;durP2;ratioP2;P2;SDS_P1;SDS_P2;PMS_P1;PMS_P2;Temp;Humidity;BMP_temperature;BMP_pressure;BME280_temperature;BME280_humidity;BME280_pressure;Samples;Min_cycle;Max_cycle;Signal;HPM_P1;HPM_P2
2022/01/19 00:01:21;;;;;;;18.35;7.10;;;;;;;-7.80;91.65;91879.41;5072916;28;20039;-62
2022/01/19 00:03:47;;;;;;;8.10;3.28;;;;;;;-7.76;90.22;91878.06;5074188;28;20375;-61
2022/01/19 00:06:14;;;;;;;12.27;4.97;;;;;;;-7.98;89.89;91845.38;5074280;28;20121;-61
2022/01/19 00:08:40;;;;;;;13.70;3.65;;;;;;;-7.79;88.89;91870.69;5074173;28;20035;-61
2022/01/19 00:11:06;;;;;;;4.07;3.28;;;;;;;-7.79;88.66;91880.22;5074179;28;20136;-61
2022/01/19 00:13:31;;;;;;;5.80;3.92;;;;;;;-7.82;88.76;91878.78;5073807;28;20037;-61
2022/01/19 00:15:57;;;;;;;13.75;4.60;;;;;;;-7.86;89.09;91891.25;5074058;28;20024;-61
2022/01/19 00:18:25;;;;;;;5.75;2.90;;;;;;;-7.83;89.04;91894.47;5073988;28;20028;-61
2022/01/19 00:20:52;;;;;;;12.05;4.45;;;;;;;-7.86;89.02;91882.72;5073937;28;20600;-61
2022/01/19 00:23:20;;;;;;;15.32;4.28;;;;;;;-7.85;88.59;91885.09;5073785;28;20025;-61
2022/01/19 00:25:49;;;;;;;16.80;6.75;;;;;;;-7.93;88.65;91871.47;5074046;28;20506;-62
2022/01/19 00:28:16;;;;;;;17.08;6.05;;;;;;;-8.24;89.23;91851.72;5073839;28;20032;-62
2022/01/19 00:30:42;;;;;;;18.40;6.38;;;;;;;-8.13;90.01;91883.25;5073810;28;20074;-62
2022/01/19 00:33:08;;;;;;;12.25;6.20;;;;;;;-8.24;92.00;91889.63;5073648;28;20029;-62
2022/01/19 00:35:35;;;;;;;19.83;8.70;;;;;;;-8.28;92.93;91890.97;5073719;28;20468;-62
2022/01/19 00:38:05;;;;;;;14.68;7.28;;;;;;;-8.32;94.22;91906.00;5073688;28;20037;-62
2022/01/19 00:40:31;;;;;;;18.73;8.80;;;;;;;-8.37;96.30;91907.50;5073856;28;20086;-62
2022/01/19 00:42:56;;;;;;;26.88;11.70;;;;;;;-8.37;97.28;91908.28;5073499;28;20452;-62
2022/01/19 00:45:22;;;;;;;20.17;9.27;;;;;;;-8.30;96.29;91903.22;5073527;28;20052;-62
2022/01/19 00:47:48;;;;;;;9.55;4.88;;;;;;;-8.26;96.19;91894.16;5073503;28;20039;-62
2022/01/19 00:50:19;;;;;;;55.28;19.35;;;;;;;-8.19;97.37;91890.72;5073473;28;20032;-62
2022/01/19 00:52:44;;;;;;;23.58;9.32;;;;;;;-8.21;98.11;91897.81;5073390;28;20056;-62
2022/01/19 00:55:11;;;;;;;10.57;5.68;;;;;;;-8.30;98.28;91903.22;5073348;28;20025;-61
2022/01/19 00:57:37;;;;;;;17.23;7.43;;;;;;;-8.37;100.00;91900.56;5073356;28;20548;-61
2022/01/19 01:00:11;;;;;;;21.27;11.02;;;;;;;-8.37;100.00;91897.16;5073234;28;20103;-61
2022/01/19 01:02:36;;;;;;;29.88;13.15;;;;;;;-8.34;100.00;91900.22;5073367;28;20024;-62
2022/01/19 01:05:03;;;;;;;18.23;8.40;;;;;;;-8.33;99.64;91904.38;5073157;28;20024;-62
2022/01/19 01:07:30;;;;;;;13.30;7.38;;;;;;;-8.37;98.55;91908.28;5072798;28;20020;-62
2022/01/19 01:09:55;;;;;;;18.35;9.23;;;;;;;-8.43;98.69;91927.06;5073102;28;20032;-61
2022/01/19 01:12:27;;;;;;;18.27;8.68;;;;;;;-8.44;98.52;91925.44;5072631;28;20039;-62
2022/01/19 01:20:21;;;;;;;12.98;6.40;;;;;;;-8.56;95.67;91925.03;5073213;28;20044;-61
2022/01/19 01:22:47;;;;;;;11.10;5.50;;;;;;;-8.63;96.02;91936.22;5072770;28;20036;-61
2022/01/19 01:25:12;;;;;;;16.55;7.93;;;;;;;-8.67;96.17;91942.69;5071564;28;20040;-61
2022/01/19 01:27:38;;;;;;;9.05;4.50;;;;;;;-8.68;96.75;91949.59;5072942;28;20535;-61
2022/01/19 01:30:06;;;;;;;9.63;4.72;;;;;;;-8.73;95.88;91945.94;5072724;28;20044;-61
2022/01/19 01:32:32;;;;;;;9.82;3.60;;;;;;;-8.64;95.14;91930.25;5072456;28;20036;-61
2022/01/19 01:34:58;;;;;;;13.95;5.40;;;;;;;-8.71;94.41;91939.63;5072668;28;20059;-61
2022/01/19 01:37:23;;;;;;;16.88;6.10;;;;;;;-8.91;94.83;91917.81;5072577;28;20045;-61
2022/01/19 01:39:49;;;;;;;11.80;5.05;;;;;;;-8.88;94.51;91925.22;5072511;28;20055;-61
2022/01/19 01:42:19;;;;;;;8.93;5.22;;;;;;;-8.99;94.73;91923.81;5072408;28;20032;-61
2022/01/19 01:44:48;;;;;;;10.23;3.58;;;;;;;-9.04;94.65;91891.78;5072425;28;20040;-61
2022/01/19 01:47:16;;;;;;;9.77;4.53;;;;;;;-8.93;94.70;91917.19;5072722;28;20147;-61
2022/01/19 01:54:54;;;;;;;16.23;5.63;;;;;;;-8.86;95.05;91913.75;5072164;28;20052;-61
2022/01/19 01:57:20;;;;;;;4.47;2.25;;;;;;;-8.72;94.77;91899.34;5072177;28;20041;-61
2022/01/19 01:59:46;;;;;;;8.27;2.85;;;;;;;-8.69;92.63;91901.56;5072151;28;20047;-61
2022/01/19 02:02:12;;;;;;;8.55;4.60;;;;;;;-8.73;92.65;91889.19;5071971;28;20036;-61
2022/01/19 02:04:41;;;;;;;10.27;5.05;;;;;;;-8.70;92.07;91899.16;5072048;28;20036;-61
2022/01/19 02:09:39;;;;;;;5.60;2.75;;;;;;;-8.68;92.04;91890.28;5072260;28;20470;-61
2022/01/19 02:23:28;;;;;;;15.23;5.18;;;;;;;-8.62;91.90;91881.06;5051881;28;20071;-61
2022/01/19 02:26:00;;;;;;;4.95;3.13;;;;;;;-8.53;91.44;91880.81;5051707;28;20041;-61
2022/01/19 02:31:49;;;;;;;10.38;4.22;;;;;;;-8.52;88.72;91868.72;5051853;28;20041;-61
2022/01/19 02:42:26;;;;;;;5.70;2.70;;;;;;;-8.72;85.80;91858.06;5051230;28;20123;-62
2022/01/19 02:49:52;;;;;;;11.10;4.13;;;;;;;-8.74;87.01;91860.03;5051620;28;20596;-61
2022/01/19 02:52:19;;;;;;;11.32;5.22;;;;;;;-8.77;87.53;91866.31;5051449;28;20122;-61
2022/01/19 02:54:45;;;;;;;3.75;2.88;;;;;;;-8.91;90.10;91861.09;5051150;28;20040;-61
2022/01/19 02:57:13;;;;;;;6.15;2.92;;;;;;;-8.87;89.54;91855.44;5051169;28;20059;-61
2022/01/19 03:10:37;;;;;;;5.38;2.78;;;;;;;-8.84;89.69;91855.06;5071460;28;20059;-63
2022/01/19 03:13:02;;;;;;;27.50;8.10;;;;;;;-8.96;92.15;91856.47;5071133;28;20481;-63
2022/01/19 03:15:28;;;;;;;5.93;2.10;;;;;;;-9.03;93.20;91868.41;5071047;28;20043;-63
2022/01/19 03:17:58;;;;;;;6.18;2.83;;;;;;;-9.08;91.62;91847.50;5071185;28;20028;-63
2022/01/19 03:20:24;;;;;;;12.10;5.10;;;;;;;-9.02;89.62;91861.47;5071049;28;20038;-63
2022/01/19 03:23:01;;;;;;;6.85;2.90;;;;;;;-8.91;87.90;91866.25;5071332;28;20055;-64
2022/01/19 03:25:27;;;;;;;5.55;2.63;;;;;;;-8.94;86.71;91869.97;5070867;28;20032;-62
2022/01/19 03:27:52;;;;;;;4.88;2.42;;;;;;;-8.86;88.30;91867.34;5071331;28;20039;-62
2022/01/19 03:30:20;;;;;;;5.85;3.38;;;;;;;-8.80;86.29;91868.44;5073658;28;20029;-62
2022/01/19 03:32:46;;;;;;;6.50;2.47;;;;;;;-8.77;88.79;91870.69;5075031;28;20086;-62
2022/01/19 03:35:14;;;;;;;4.93;2.83;;;;;;;-8.81;94.23;91865.06;5074921;28;20463;-62
2022/01/19 03:37:40;;;;;;;34.40;12.02;;;;;;;-8.93;98.45;91871.59;5074996;28;20032;-62
2022/01/19 03:40:07;;;;;;;16.17;7.05;;;;;;;-9.01;100.00;91870.81;5074985;28;20040;-62
2022/01/19 03:42:33;;;;;;;73.25;25.23;;;;;;;-9.06;100.00;91868.75;5074922;28;20123;-63
2022/01/19 03:44:59;;;;;;;14.80;6.20;;;;;;;-9.12;100.00;91875.41;5075105;28;20525;-62
2022/01/19 03:47:27;;;;;;;9.95;3.67;;;;;;;-9.19;100.00;91869.28;5074939;28;20028;-62
2022/01/19 03:49:53;;;;;;;9.57;3.85;;;;;;;-9.12;100.00;91872.81;5074839;28;20029;-62
2022/01/19 03:52:18;;;;;;;15.15;5.75;;;;;;;-9.12;100.00;91864.28;5074637;28;20078;-62
2022/01/19 03:54:45;;;;;;;14.35;4.05;;;;;;;-9.18;100.00;91860.59;5074595;28;20032;-62
2022/01/19 03:57:11;;;;;;;7.13;4.18;;;;;;;-9.20;100.00;91862.53;5074666;28;20489;-62
2022/01/19 03:59:37;;;;;;;9.10;5.70;;;;;;;-9.25;100.00;91864.81;5074621;28;20043;-62
2022/01/19 04:02:03;;;;;;;10.73;4.43;;;;;;;-9.25;100.00;91869.97;5074637;28;20493;-62
2022/01/19 04:04:53;;;;;;;15.32;5.65;;;;;;;-9.27;100.00;91873.69;5074209;28;20035;-63
2022/01/19 04:07:18;;;;;;;9.18;4.50;;;;;;;-9.27;100.00;91878.84;5074461;28;20027;-63
2022/01/19 04:09:45;;;;;;;11.68;4.55;;;;;;;-9.18;100.00;91886.34;5074427;28;20040;-63
2022/01/19 04:12:16;;;;;;;9.82;4.95;;;;;;;-9.21;100.00;91888.47;5074385;28;20020;-63
2022/01/19 04:14:42;;;;;;;6.55;4.35;;;;;;;-9.27;100.00;91899.47;5074145;28;20025;-62
2022/01/19 04:17:10;;;;;;;8.38;4.18;;;;;;;-9.22;100.00;91907.47;5074284;28;20086;-62
2022/01/19 04:19:47;;;;;;;13.20;6.35;;;;;;;-9.26;100.00;91911.38;5074245;28;20028;-62
2022/01/19 04:22:17;;;;;;;8.52;4.80;;;;;;;-9.36;100.00;91896.91;5072858;28;20059;-62
2022/01/19 04:24:43;;;;;;;23.00;5.70;;;;;;;-9.25;100.00;91910.41;5073947;28;20460;-62
2022/01/19 04:30:06;;;;;;;13.05;6.57;;;;;;;-9.30;100.00;91910.09;5073993;28;20475;-62
2022/01/19 04:33:18;;;;;;;15.15;5.00;;;;;;;-9.38;100.00;91908.34;5073805;28;20025;-62
2022/01/19 04:35:25;;;;;;;17.23;7.10;;;;;;;-9.45;100.00;91897.91;5068055;28;20557;-62
2022/01/19 05:04:53;;;;;;;18.20;7.45;;;;;;;-9.62;98.18;91931.56;5073152;28;20060;-62
2022/01/19 05:07:27;;;;;;;25.13;8.05;;;;;;;-9.62;95.61;91921.28;5073644;28;20112;-61
2022/01/19 05:15:05;;;;;;;10.70;4.32;;;;;;;-9.74;95.03;91944.00;5073092;28;20112;-61
2022/01/19 05:17:31;;;;;;;8.05;4.50;;;;;;;-9.72;96.49;91942.88;5073166;28;20489;-61
2022/01/19 05:19:56;;;;;;;8.55;4.45;;;;;;;-9.66;96.09;91946.56;5073011;28;20032;-61
2022/01/19 05:22:22;;;;;;;8.77;5.10;;;;;;;-9.56;95.90;91967.78;5072902;28;20039;-62
2022/01/19 05:24:47;;;;;;;14.60;7.97;;;;;;;-9.50;95.51;91967.13;5072972;28;20032;-62
2022/01/19 05:27:13;;;;;;;16.23;7.68;;;;;;;-9.36;93.96;91974.19;5072916;28;20029;-61
2022/01/19 05:29:38;;;;;;;19.38;9.40;;;;;;;-9.32;91.52;91973.84;5073101;28;20033;-62
2022/01/19 05:32:05;;;;;;;6.15;4.00;;;;;;;-9.30;91.24;91980.47;5072883;28;20043;-62
2022/01/19 05:34:30;;;;;;;19.75;7.45;;;;;;;-9.29;89.19;91973.53;5072571;28;20398;-61
2022/01/19 05:36:56;;;;;;;15.82;6.55;;;;;;;-9.33;88.16;91967.88;5072619;28;20036;-61
2022/01/19 05:39:21;;;;;;;8.13;3.78;;;;;;;-9.36;87.77;91968.22;5072661;28;20020;-61
2022/01/19 05:41:47;;;;;;;9.45;5.72;;;;;;;-9.45;89.15;91970.03;5072626;28;20040;-61
2022/01/19 05:44:13;;;;;;;13.10;6.90;;;;;;;-9.59;90.33;91968.13;5072447;28;20025;-61
2022/01/19 05:46:38;;;;;;;13.75;7.60;;;;;;;-9.55;91.90;91974.53;5072414;28;20048;-61
2022/01/19 05:49:04;;;;;;;10.60;4.13;;;;;;;-9.48;92.26;91974.69;5072299;28;20067;-62
2022/01/19 05:51:29;;;;;;;10.55;6.05;;;;;;;-9.47;92.16;91977.09;5072332;28;20060;-61
2022/01/19 05:53:54;;;;;;;19.70;8.30;;;;;;;-9.41;92.55;91981.59;5071255;28;20023;-61
2022/01/19 05:56:20;;;;;;;13.18;6.05;;;;;;;-9.29;92.40;91989.81;5072142;28;20162;-62
2022/01/19 05:58:45;;;;;;;22.92;8.90;;;;;;;-9.19;91.10;91984.44;5072280;28;20504;-62
2022/01/19 06:01:11;;;;;;;23.75;9.32;;;;;;;-9.20;90.46;91973.34;5072236;28;20492;-62
2022/01/19 06:03:36;;;;;;;19.20;9.48;;;;;;;-9.25;90.58;91993.66;5072273;28;20024;-62
2022/01/19 06:06:02;;;;;;;15.60;6.97;;;;;;;-9.12;89.68;91993.94;5071826;28;20043;-62
2022/01/19 06:10:55;;;;;;;28.98;12.70;;;;;;;-9.01;88.45;92007.41;5072360;28;20031;-62
2022/01/19 06:13:22;;;;;;;13.27;5.97;;;;;;;-8.92;87.30;91984.03;5071866;28;20024;-62
2022/01/19 06:15:48;;;;;;;11.55;6.32;;;;;;;-8.87;85.79;91993.84;5071902;28;20110;-63
2022/01/19 06:18:15;;;;;;;11.85;5.80;;;;;;;-8.82;85.09;91994.97;5071930;28;20029;-63
2022/01/19 06:20:42;;;;;;;21.63;8.75;;;;;;;-8.86;84.72;92003.97;5072152;28;20102;-63
2022/01/19 06:23:07;;;;;;;19.88;9.82;;;;;;;-8.88;85.22;91998.19;5071868;28;20101;-63
2022/01/19 06:25:34;;;;;;;19.15;8.15;;;;;;;-8.77;85.59;92000.41;5071720;28;20482;-63
2022/01/19 06:28:01;;;;;;;8.85;4.70;;;;;;;-8.63;84.33;91990.38;5071820;28;20104;-63
2022/01/19 06:30:26;;;;;;;8.55;4.18;;;;;;;-8.53;83.49;91998.69;5071740;28;20024;-63
2022/01/19 06:32:52;;;;;;;59.47;17.52;;;;;;;-8.52;83.03;92000.28;5070707;28;20531;-63
2022/01/19 06:35:18;;;;;;;82.93;26.38;;;;;;;-8.38;83.55;91993.63;5070624;28;20055;-63
2022/01/19 06:37:44;;;;;;;81.57;26.55;;;;;;;-8.22;83.60;92001.22;5071636;28;20029;-63
2022/01/19 06:40:11;;;;;;;63.90;22.42;;;;;;;-7.99;82.34;91990.94;5069680;28;20178;-62
2022/01/19 06:42:37;;;;;;;32.25;12.60;;;;;;;-7.72;80.32;91999.94;5051389;28;20049;-63
2022/01/19 06:45:04;;;;;;;18.58;8.02;;;;;;;-7.44;78.20;91992.44;5051444;28;20056;-63
2022/01/19 06:47:29;;;;;;;16.45;8.05;;;;;;;-7.58;77.37;91999.97;5059277;28;20029;-64
2022/01/19 06:49:55;;;;;;;23.33;11.60;;;;;;;-7.30;77.00;92009.75;5067168;28;20394;-63
2022/01/19 06:52:21;;;;;;;20.30;7.55;;;;;;;-7.13;74.85;92010.38;5059632;28;20025;-62
2022/01/19 06:54:46;;;;;;;27.55;9.52;;;;;;;-7.33;74.69;92008.31;5067372;28;20536;-63
2022/01/19 06:57:12;;;;;;;19.05;6.85;;;;;;;-7.36;74.91;92000.13;5071143;28;20024;-62
2022/01/19 06:59:37;;;;;;;18.58;6.82;;;;;;;-7.27;75.17;92002.44;5058552;28;20426;-64
2022/01/19 07:02:03;;;;;;;14.88;7.28;;;;;;;-7.09;75.29;92002.13;5070996;28;20508;-63
2022/01/19 07:04:28;;;;;;;28.15;11.57;;;;;;;-6.99;75.39;92007.81;5070215;28;20417;-63
2022/01/19 07:06:54;;;;;;;20.58;10.40;;;;;;;-5.88;74.14;92016.31;5069641;28;20036;-63
2022/01/19 07:09:20;;;;;;;34.05;14.55;;;;;;;-3.50;68.37;92000.34;5070664;28;20024;-63
2022/01/19 07:11:45;;;;;;;24.23;10.45;;;;;;;-1.39;61.29;92000.91;5070753;28;20056;-63
2022/01/19 07:14:14;;;;;;;7.10;3.95;;;;;;;-1.40;60.74;91991.47;5069812;28;20020;-63
2022/01/19 07:16:41;;;;;;;15.68;6.25;;;;;;;0.98;56.21;91996.81;5070633;28;20048;-63
2022/01/19 07:19:07;;;;;;;11.30;5.47;;;;;;;2.95;51.38;91988.94;5070380;28;20032;-63
2022/01/19 07:21:32;;;;;;;7.15;4.55;;;;;;;4.93;46.41;91986.47;5069398;28;20046;-63
2022/01/19 07:23:58;;;;;;;11.88;6.20;;;;;;;4.74;45.44;91987.84;5070359;28;20074;-63
2022/01/19 07:26:23;;;;;;;12.60;6.82;;;;;;;5.91;43.09;91986.25;5070429;28;20029;-64
2022/01/19 07:28:49;;;;;;;9.88;6.53;;;;;;;4.84;44.01;91973.94;5069739;28;20039;-64
2022/01/19 07:31:15;;;;;;;16.45;7.32;;;;;;;6.36;42.01;91985.75;5070563;28;20032;-68
2022/01/19 07:33:41;;;;;;;21.73;10.80;;;;;;;6.76;41.15;91973.75;5070311;28;20401;-65
2022/01/19 07:36:06;;;;;;;9.38;5.65;;;;;;;7.43;39.04;91970.22;5070429;28;20026;-65
2022/01/19 07:38:32;;;;;;;9.50;4.03;;;;;;;7.88;38.11;91969.41;5070392;28;20043;-64
2022/01/19 07:40:57;;;;;;;18.98;9.48;;;;;;;5.85;40.41;91974.84;5070419;28;20409;-65
2022/01/19 07:43:23;;;;;;;18.83;10.43;;;;;;;7.66;38.14;91969.69;5069539;28;20017;-64
2022/01/19 07:45:49;;;;;;;19.65;11.52;;;;;;;9.56;35.21;91971.47;5068763;28;20068;-65
2022/01/19 07:48:14;;;;;;;21.58;12.05;;;;;;;10.90;33.01;91962.78;5070155;28;20032;-64
2022/01/19 07:50:40;;;;;;;28.30;16.25;;;;;;;10.22;34.32;91970.94;5069624;28;20037;-64
2022/01/19 07:53:06;;;;;;;34.78;19.65;;;;;;;11.67;32.42;91973.19;5067463;28;22093;-63
2022/01/19 07:55:32;;;;;;;20.42;12.57;;;;;;;10.24;33.58;91976.78;5070077;28;20125;-64
2022/01/19 07:57:57;;;;;;;190.77;103.45;;;;;;;6.26;39.96;91973.25;5069760;28;20048;-63
2022/01/19 08:00:23;;;;;;;16.52;9.77;;;;;;;6.14;41.08;91969.22;5069178;28;20099;-63
2022/01/19 08:02:51;;;;;;;13.18;6.93;;;;;;;8.10;37.79;91969.91;5070481;28;20127;-65
2022/01/19 08:05:17;;;;;;;17.48;7.63;;;;;;;8.89;36.85;91968.38;5068618;28;20473;-64
2022/01/19 08:07:42;;;;;;;12.52;7.20;;;;;;;10.68;34.50;91973.16;5070220;28;20036;-64
2022/01/19 08:10:10;;;;;;;12.75;8.20;;;;;;;12.04;33.16;91972.41;5070388;28;20078;-64
2022/01/19 08:12:36;;;;;;;18.15;11.25;;;;;;;11.41;33.25;91975.47;5070215;28;20472;-64
2022/01/19 08:15:02;;;;;;;12.75;8.00;;;;;;;11.69;33.46;91966.53;5069220;28;20036;-64
2022/01/19 08:17:28;;;;;;;14.48;9.77;;;;;;;11.28;34.41;91970.84;5072924;28;20429;-64
2022/01/19 08:19:56;;;;;;;31.33;19.58;;;;;;;9.52;37.20;91968.56;5073906;28;20537;-63
2022/01/19 08:22:21;;;;;;;30.67;16.48;;;;;;;10.01;37.77;91967.66;5073737;28;20460;-65
2022/01/19 08:24:47;;;;;;;20.45;10.88;;;;;;;9.08;38.52;91973.88;5073754;28;20036;-64
2022/01/19 08:27:12;;;;;;;12.05;6.82;;;;;;;6.77;41.08;91970.84;5073786;28;20040;-65
2022/01/19 08:29:38;;;;;;;13.65;6.57;;;;;;;9.23;38.16;91971.13;5072877;28;20090;-66
2022/01/19 08:32:07;;;;;;;11.90;5.93;;;;;;;10.42;36.40;91970.78;5073653;28;20040;-65
2022/01/19 08:34:33;;;;;;;13.70;6.40;;;;;;;9.25;38.30;91966.34;5073335;28;20029;-65
2022/01/19 08:37:00;;;;;;;10.80;6.45;;;;;;;7.88;39.72;91965.94;5073475;28;20075;-70
2022/01/19 08:39:26;;;;;;;10.75;6.32;;;;;;;8.01;40.56;91963.56;5073748;28;20029;-63
2022/01/19 08:41:53;;;;;;;10.98;5.40;;;;;;;9.05;38.00;91957.69;5073391;28;20556;-64
2022/01/19 08:44:22;;;;;;;9.50;6.13;;;;;;;8.76;38.77;91965.53;5072246;28;20469;-65
2022/01/19 08:46:48;;;;;;;14.68;6.57;;;;;;;9.07;38.37;91960.88;5071709;28;20040;-65
2022/01/19 08:49:15;;;;;;;20.48;10.60;;;;;;;8.34;39.45;91945.50;5073316;28;20048;-64
2022/01/19 08:51:41;;;;;;;14.82;9.50;;;;;;;8.90;38.46;91958.56;5073403;28;20059;-65
2022/01/19 08:54:06;;;;;;;11.40;4.95;;;;;;;8.42;38.97;91965.38;5073023;28;20489;-64
2022/01/19 08:56:32;;;;;;;13.02;5.97;;;;;;;9.25;37.77;91958.38;5072938;28;20037;-64
2022/01/19 08:58:58;;;;;;;11.32;6.40;;;;;;;8.48;38.97;91956.34;5072323;28;20048;-65
2022/01/19 09:01:25;;;;;;;8.90;5.85;;;;;;;7.42;41.38;91958.03;5073236;28;20052;-65
2022/01/19 09:03:50;;;;;;;9.57;5.15;;;;;;;6.82;42.48;91938.34;5072973;28;20039;-63
2022/01/19 09:06:16;;;;;;;13.52;5.40;;;;;;;7.74;41.56;91952.47;5072710;28;20048;-64
2022/01/19 09:08:41;;;;;;;8.32;5.10;;;;;;;8.86;39.93;91946.91;5073027;28;20039;-64
2022/01/19 09:11:08;;;;;;;10.90;4.68;;;;;;;9.24;38.65;91951.47;5071585;28;20178;-63
2022/01/19 09:13:34;;;;;;;10.27;6.03;;;;;;;9.17;39.24;91948.34;5072000;28;20451;-64
2022/01/19 09:15:59;;;;;;;14.38;8.05;;;;;;;9.27;39.41;91955.44;5072672;28;20048;-63
2022/01/19 09:18:25;;;;;;;9.68;5.35;;;;;;;7.56;41.13;91939.75;5072576;28;20166;-63
2022/01/19 09:20:51;;;;;;;11.93;6.18;;;;;;;7.27;42.34;91928.91;5072655;28;20036;-62
2022/01/19 09:23:17;;;;;;;13.07;7.80;;;;;;;9.06;40.27;91938.84;5072431;28;20420;-64
2022/01/19 09:25:43;;;;;;;12.73;7.40;;;;;;;7.24;42.65;91938.13;5072429;28;20041;-63
2022/01/19 09:28:08;;;;;;;11.18;5.43;;;;;;;7.75;41.45;91914.34;5071530;28;20036;-63
2022/01/19 09:30:35;;;;;;;12.40;5.90;;;;;;;7.89;41.25;91928.63;5067609;28;20124;-64
2022/01/19 09:33:09;;;;;;;16.50;8.52;;;;;;;9.67;39.13;91914.53;5072224;28;20086;-64
2022/01/19 09:35:53;;;;;;;10.93;5.97;;;;;;;8.03;41.21;91919.03;5070674;28;20033;-64
2022/01/19 09:38:21;;;;;;;18.23;7.63;;;;;;;7.37;42.16;91911.16;5072147;28;20734;-63
2022/01/19 09:40:47;;;;;;;20.42;10.82;;;;;;;7.08;43.51;91902.13;5072332;28;20109;-64
2022/01/19 09:43:14;;;;;;;19.65;8.98;;;;;;;7.24;42.69;91902.94;5071364;28;20476;-64
2022/01/19 09:45:40;;;;;;;16.95;6.28;;;;;;;7.18;42.54;91894.22;5072026;28;20039;-65
2022/01/19 09:48:07;;;;;;;17.08;9.52;;;;;;;7.86;42.34;91888.59;5072097;28;20409;-65
2022/01/19 09:50:33;;;;;;;19.85;8.77;;;;;;;7.15;42.89;91889.44;5071930;28;20025;-64
2022/01/19 09:53:03;;;;;;;18.38;8.07;;;;;;;8.62;41.12;91886.53;5071971;28;20032;-64
2022/01/19 09:55:29;;;;;;;13.43;6.70;;;;;;;8.38;39.93;91881.06;5071527;28;20084;-64
2022/01/19 09:57:54;;;;;;;15.43;7.60;;;;;;;8.10;41.78;91874.50;5071096;28;20480;-64
2022/01/19 10:00:20;;;;;;;13.07;5.15;;;;;;;10.12;37.01;91870.00;5071819;28;20024;-65
2022/01/19 10:03:11;;;;;;;9.18;5.93;;;;;;;11.36;35.22;91871.59;5071804;28;20090;-64
2022/01/19 10:05:41;;;;;;;7.10;5.00;;;;;;;10.71;35.86;91874.09;5071186;28;20419;-64
2022/01/19 10:08:07;;;;;;;20.85;8.23;;;;;;;10.29;35.84;91867.72;5061530;28;20038;-64
2022/01/19 10:10:32;;;;;;;65.50;34.38;;;;;;;10.21;37.24;91865.66;5056709;28;20025;-64
2022/01/19 10:18:33;;;;;;;9.50;5.07;;;;;;;10.07;36.59;91864.72;5051432;28;20059;-64
2022/01/19 10:21:06;;;;;;;8.13;4.20;;;;;;;10.69;35.67;91850.44;5051264;28;20417;-64
2022/01/19 10:23:44;;;;;;;14.40;7.55;;;;;;;9.47;37.31;91848.28;5051344;28;20150;-64
2022/01/19 10:26:15;;;;;;;7.72;4.10;;;;;;;10.97;35.68;91850.63;5051376;28;20042;-64
2022/01/19 10:29:10;;;;;;;7.32;3.80;;;;;;;12.47;32.60;91846.81;5050612;28;20025;-64
2022/01/19 10:31:40;;;;;;;9.73;5.22;;;;;;;11.53;33.40;91855.91;5059076;28;20425;-64
2022/01/19 10:34:17;;;;;;;8.13;4.85;;;;;;;11.39;34.45;91855.84;5064105;28;20035;-65
2022/01/19 10:36:55;;;;;;;32.00;13.70;;;;;;;11.87;33.52;91854.84;5061709;28;20021;-65
2022/01/19 10:39:39;;;;;;;10.75;5.05;;;;;;;12.44;32.81;91852.72;5059993;28;20433;-66
2022/01/19 10:42:11;;;;;;;7.88;4.35;;;;;;;10.45;34.44;91853.16;5060592;28;20028;-65
2022/01/19 10:44:42;;;;;;;8.82;5.05;;;;;;;10.66;35.50;91850.22;5069820;28;20485;-65
2022/01/19 10:47:08;;;;;;;17.75;7.78;;;;;;;10.85;34.77;91840.38;5070428;28;20028;-65
2022/01/19 10:49:53;;;;;;;51.58;18.02;;;;;;;11.75;33.54;91847.28;5070725;28;20068;-65
2022/01/19 10:52:27;;;;;;;46.60;16.60;;;;;;;11.43;33.95;91833.94;5070841;28;20090;-66
2022/01/19 10:54:53;;;;;;;51.08;19.25;;;;;;;12.43;33.17;91835.91;5069879;28;20024;-65
2022/01/19 10:57:19;;;;;;;51.85;18.35;;;;;;;11.90;33.86;91830.25;5069812;28;20029;-65
2022/01/19 10:59:45;;;;;;;26.48;11.15;;;;;;;13.82;31.56;91827.22;5070677;28;20033;-65
2022/01/19 11:02:12;;;;;;;10.25;5.70;;;;;;;14.70;30.34;91832.69;5070235;28;20077;-65
2022/01/19 11:04:39;;;;;;;13.40;7.00;;;;;;;14.65;31.12;91825.56;5070221;28;20033;-65
2022/01/19 11:07:11;;;;;;;9.05;5.70;;;;;;;13.61;31.80;91821.59;5070174;28;20028;-64
2022/01/19 11:09:45;;;;;;;10.68;6.22;;;;;;;13.40;32.67;91804.47;5070195;28;20036;-64
2022/01/19 11:12:15;;;;;;;9.88;5.45;;;;;;;11.82;34.38;91809.59;5069965;28;20117;-64
2022/01/19 11:14:41;;;;;;;10.25;5.32;;;;;;;13.90;31.18;91794.41;5070273;28;20478;-64
2022/01/19 11:17:11;;;;;;;7.50;4.90;;;;;;;12.26;33.25;91788.47;5069977;28;20460;-65
2022/01/19 11:19:41;;;;;;;18.27;10.75;;;;;;;10.95;35.45;91792.34;5070111;28;20448;-65
2022/01/19 11:22:18;;;;;;;12.45;5.60;;;;;;;12.06;33.01;91783.56;5070372;28;20146;-64
2022/01/19 11:24:54;;;;;;;15.55;5.20;;;;;;;13.26;32.99;91777.81;5070191;28;20032;-65
2022/01/19 11:27:22;;;;;;;9.98;5.40;;;;;;;12.10;32.65;91771.19;5069786;28;20033;-66
2022/01/19 11:30:13;;;;;;;11.95;8.32;;;;;;;10.53;36.48;91773.78;5070400;28;20029;-65
2022/01/19 11:32:39;;;;;;;11.13;5.22;;;;;;;9.01;38.55;91779.63;5070128;28;20509;-65
2022/01/19 11:35:32;;;;;;;11.20;6.97;;;;;;;8.91;38.84;91779.72;5070427;28;20064;-65
2022/01/19 11:37:57;;;;;;;10.50;4.70;;;;;;;10.64;35.82;91768.03;5070103;28;20118;-66
2022/01/19 11:40:34;;;;;;;24.90;7.50;;;;;;;10.72;35.62;91762.03;5069291;28;20082;-66
2022/01/19 11:43:21;;;;;;;11.30;6.63;;;;;;;10.34;36.94;91763.13;5069352;28;20163;-66
2022/01/19 11:45:46;;;;;;;21.85;9.85;;;;;;;11.70;35.05;91759.41;5069668;28;20020;-66
2022/01/19 11:48:17;;;;;;;24.10;11.80;;;;;;;12.06;34.30;91766.75;5070201;28;20025;-66
2022/01/19 11:50:42;;;;;;;10.73;5.45;;;;;;;11.47;34.24;91766.47;5076377;28;20106;-66
2022/01/19 11:53:10;;;;;;;10.35;5.07;;;;;;;12.43;33.35;91757.72;5093932;28;20161;-66
2022/01/19 11:55:39;;;;;;;10.52;5.05;;;;;;;12.04;33.79;91751.06;5093739;28;20035;-65
2022/01/19 11:58:20;;;;;;;10.70;5.55;;;;;;;12.03;33.92;91752.16;5093560;28;20540;-65
2022/01/19 12:00:50;;;;;;;9.13;6.00;;;;;;;10.89;35.13;91740.25;5093929;28;20035;-65
2022/01/19 12:03:22;;;;;;;12.65;7.13;;;;;;;9.22;37.97;91756.34;5094124;28;20024;-67
2022/01/19 12:05:53;;;;;;;25.58;12.32;;;;;;;10.72;35.65;91738.09;5093939;28;20036;-67
2022/01/19 12:08:38;;;;;;;22.00;9.82;;;;;;;11.84;34.75;91743.47;5093227;28;20028;-67
2022/01/19 12:11:10;;;;;;;11.48;6.72;;;;;;;11.59;34.66;91744.69;5093209;28;20036;-68
2022/01/19 12:13:59;;;;;;;8.63;4.95;;;;;;;9.61;36.82;91742.94;5075424;28;20567;-68
2022/01/19 12:17:24;;;;;;;16.20;6.45;;;;;;;9.35;37.25;91723.84;5072912;28;20410;-67
2022/01/19 12:19:20;;;;;;;36.33;20.23;;;;;;;10.09;38.28;91721.66;5067729;28;20036;-66
2022/01/19 12:22:05;;;;;;;11.55;6.30;;;;;;;11.89;34.54;91730.03;5072370;28;20520;-67
2022/01/19 12:24:33;;;;;;;12.95;6.10;;;;;;;10.60;36.52;91731.66;5072380;28;20028;-66
2022/01/19 12:27:09;;;;;;;9.07;4.90;;;;;;;10.37;36.99;91718.13;5072548;28;20028;-66
2022/01/19 12:29:38;;;;;;;11.70;5.63;;;;;;;10.30;37.08;91716.91;5073019;28;20029;-67
2022/01/19 12:32:29;;;;;;;14.25;5.30;;;;;;;10.90;36.18;91720.53;5073320;28;20054;-66
2022/01/19 12:35:11;;;;;;;9.15;4.50;;;;;;;8.54;39.88;91725.34;5072866;28;20035;-68
2022/01/19 12:37:55;;;;;;;10.50;5.85;;;;;;;8.42;40.63;91708.97;5073185;28;20021;-69
2022/01/19 12:40:24;;;;;;;13.70;6.55;;;;;;;9.35;38.72;91707.13;5071921;28;20016;-68
2022/01/19 12:42:54;;;;;;;12.50;5.13;;;;;;;7.24;42.21;91702.59;5072869;28;20035;-68
2022/01/19 12:45:44;;;;;;;12.23;5.50;;;;;;;9.11;40.18;91696.47;5072599;28;20025;-68
2022/01/19 12:48:12;;;;;;;15.02;5.25;;;;;;;7.35;41.78;91695.44;5073087;28;20115;-67
2022/01/19 12:50:42;;;;;;;8.90;6.05;;;;;;;8.25;40.71;91690.75;5070058;28;20027;-66
2022/01/19 12:53:13;;;;;;;28.17;13.30;;;;;;;9.21;39.25;91691.84;5072448;28;20029;-65
2022/01/19 12:55:42;;;;;;;15.57;8.63;;;;;;;9.49;38.98;91692.88;5072043;28;20029;-65
2022/01/19 12:58:36;;;;;;;14.27;5.38;;;;;;;7.36;40.85;91694.38;5072586;28;20040;-65
2022/01/19 13:01:06;;;;;;;11.30;5.50;;;;;;;8.96;40.12;91692.88;5071073;28;20032;-66
2022/01/19 13:03:39;;;;;;;11.57;5.60;;;;;;;8.12;40.09;91688.72;5072096;28;20028;-66
2022/01/19 13:06:11;;;;;;;10.63;5.80;;;;;;;7.56;40.60;91690.84;5071987;28;20041;-67
2022/01/19 13:08:38;;;;;;;15.48;11.50;;;;;;;8.35;39.93;91679.31;5073613;28;20024;-65